Time;durP1;ratioP1;P1;durP2;ratioP2;P2;SDS_P1;SDS_P2;PMS_P1;PMS_P2;Temp;Humidity;BMP_temperature;BMP_pressure;BME280_temperature;BME280_humidity;BME280_pressure;Samples;Min_cycle;Max_cycle;Signal;HPM_P1;HPM_P2
2021/05/17 00:01:06;;;;;;;14.67;12.60;;;14.10;99.90;;;;;;5032945;28;20432;-66
2021/05/17 00:03:32;;;;;;;14.03;11.30;;;14.10;99.90;;;;;;5033508;28;20186;-68
2021/05/17 00:05:58;;;;;;;13.80;12.27;;;14.10;99.90;;;;;;5033634;28;20419;-68
2021/05/17 00:08:24;;;;;;;14.10;12.60;;;14.10;99.90;;;;;;5033247;28;20455;-69
2021/05/17 00:10:50;;;;;;;13.93;11.53;;;14.10;99.90;;;;;;5032251;28;20936;-68
2021/05/17 00:13:17;;;;;;;14.17;12.37;;;14.10;99.90;;;;;;5033448;28;20474;-67
2021/05/17 00:15:43;;;;;;;14.30;12.80;;;14.10;99.90;;;;;;5033622;28;20909;-68
2021/05/17 00:18:10;;;;;;;15.23;13.00;;;14.10;99.90;;;;;;5033295;28;20487;-69
2021/05/17 00:20:35;;;;;;;14.87;12.63;;;14.10;99.90;;;;;;5032105;28;20427;-67
2021/05/17 00:23:01;;;;;;;15.53;13.30;;;14.10;99.90;;;;;;5033329;28;20424;-67
2021/05/17 00:25:27;;;;;;;16.37;13.40;;;14.10;99.90;;;;;;5033381;28;20932;-69
2021/05/17 00:27:56;;;;;;;15.73;12.43;;;14.10;99.90;;;;;;5034386;28;20430;-68
2021/05/17 00:30:28;;;;;;;16.10;14.50;;;14.10;99.90;;;;;;5037295;28;20412;-69
2021/05/17 00:32:54;;;;;;;17.57;13.37;;;14.10;99.90;;;;;;5037420;28;20424;-70
2021/05/17 00:35:20;;;;;;;14.97;13.30;;;14.20;99.90;;;;;;5037203;28;20777;-68
2021/05/17 00:37:46;;;;;;;16.37;14.20;;;14.20;99.90;;;;;;5037093;28;20463;-68
2021/05/17 00:40:14;;;;;;;17.70;15.10;;;14.20;99.90;;;;;;5037162;28;20446;-69
2021/05/17 00:42:40;;;;;;;18.90;15.27;;;14.10;99.90;;;;;;5037483;28;20535;-68
2021/05/17 00:45:08;;;;;;;20.07;16.60;;;14.10;99.90;;;;;;5037112;28;20844;-67
2021/05/17 00:47:38;;;;;;;19.47;16.70;;;14.10;99.90;;;;;;5035989;28;20438;-68
2021/05/17 00:50:05;;;;;;;18.73;16.60;;;14.00;99.90;;;;;;5035994;28;20430;-67
2021/05/17 00:52:32;;;;;;;25.67;18.67;;;14.00;99.90;;;;;;5036861;28;20438;-68
2021/05/17 00:54:57;;;;;;;21.73;17.90;;;13.90;99.90;;;;;;5036883;28;20411;-67
2021/05/17 00:57:23;;;;;;;22.63;17.73;;;13.90;99.90;;;;;;5035727;28;20518;-67
2021/05/17 00:59:49;;;;;;;24.17;18.40;;;13.90;99.90;;;;;;5036910;28;20293;-69
2021/05/17 01:02:14;;;;;;;23.00;18.77;;;13.90;99.90;;;;;;5035556;28;20256;-69
2021/05/17 01:04:40;;;;;;;22.10;19.53;;;13.80;99.90;;;;;;5036807;28;20182;-68
2021/05/17 01:07:06;;;;;;;27.03;19.00;;;13.80;99.90;;;;;;5037004;28;20640;-67
2021/05/17 01:09:34;;;;;;;25.27;21.40;;;13.80;99.90;;;;;;5036727;28;20234;-68
2021/05/17 01:12:00;;;;;;;24.03;18.33;;;13.80;99.90;;;;;;5036946;28;20443;-67
2021/05/17 01:14:26;;;;;;;26.70;20.20;;;13.80;99.90;;;;;;5036454;28;20407;-68
2021/05/17 01:16:53;;;;;;;23.40;19.77;;;13.80;99.90;;;;;;5036710;28;20518;-69
2021/05/17 01:19:42;;;;;;;23.30;20.53;;;13.70;99.90;;;;;;5035177;28;20526;-67
2021/05/17 01:22:21;;;;;;;22.30;18.80;;;13.70;99.90;;;;;;5036792;28;20477;-67
2021/05/17 01:24:47;;;;;;;27.50;20.50;;;13.70;99.90;;;;;;5036358;28;20392;-67
2021/05/17 01:27:13;;;;;;;24.27;20.40;;;13.60;99.90;;;;;;5036526;28;20522;-67
2021/05/17 01:29:42;;;;;;;23.80;19.30;;;13.60;99.90;;;;;;5036262;28;20419;-68
2021/05/17 01:32:09;;;;;;;28.40;21.43;;;13.60;99.90;;;;;;5036559;28;20448;-68
2021/05/17 01:34:37;;;;;;;24.47;20.47;;;13.60;99.90;;;;;;5036154;28;20410;-67
2021/05/17 01:37:03;;;;;;;25.33;20.70;;;13.50;99.90;;;;;;5034888;28;20463;-68
2021/05/17 01:39:29;;;;;;;27.30;21.70;;;13.50;99.90;;;;;;5035027;28;20431;-69
2021/05/17 01:41:55;;;;;;;26.60;21.33;;;13.50;99.90;;;;;;5036327;28;20463;-66
2021/05/17 01:44:23;;;;;;;28.03;22.03;;;13.40;99.90;;;;;;5035949;28;20929;-67
2021/05/17 01:46:49;;;;;;;25.77;20.90;;;13.40;99.90;;;;;;5036214;28;20689;-69
2021/05/17 01:49:16;;;;;;;28.30;20.93;;;13.40;99.90;;;;;;5034629;28;20502;-68
2021/05/17 01:51:48;;;;;;;27.43;22.17;;;13.40;99.90;;;;;;5036177;28;20443;-66
2021/05/17 01:54:15;;;;;;;26.63;21.40;;;13.40;99.90;;;;;;5035829;28;20411;-68
2021/05/17 01:56:42;;;;;;;30.53;21.30;;;13.50;99.90;;;;;;5036014;28;20454;-68
2021/05/17 01:59:08;;;;;;;31.20;21.83;;;13.40;99.90;;;;;;5035690;28;20437;-67
2021/05/17 02:01:34;;;;;;;30.73;23.10;;;13.40;99.90;;;;;;5034542;28;20542;-66
2021/05/17 02:04:00;;;;;;;27.03;22.00;;;13.30;99.90;;;;;;5035684;28;20972;-67
2021/05/17 02:06:26;;;;;;;27.50;21.93;;;13.30;99.90;;;;;;5035934;28;20449;-67
2021/05/17 02:08:52;;;;;;;29.73;22.67;;;13.30;99.90;;;;;;5035352;28;20546;-67
2021/05/17 02:11:23;;;;;;;29.73;22.50;;;13.30;99.90;;;;;;5035641;28;20506;-68
2021/05/17 02:13:49;;;;;;;29.07;22.03;;;13.30;99.90;;;;;;5035555;28;20878;-69
2021/05/17 02:16:16;;;;;;;28.03;21.67;;;13.30;99.90;;;;;;5035412;28;20516;-67
2021/05/17 02:18:44;;;;;;;29.50;21.23;;;13.20;99.90;;;;;;5035324;28;20613;-68
2021/05/17 02:21:12;;;;;;;28.70;22.40;;;13.20;99.90;;;;;;5035385;28;20762;-68
2021/05/17 02:23:38;;;;;;;34.30;24.00;;;13.20;99.90;;;;;;5035290;28;20403;-68
2021/05/17 02:26:05;;;;;;;29.80;23.23;;;13.10;99.90;;;;;;5033039;28;20471;-68
2021/05/17 02:28:30;;;;;;;25.30;20.17;;;13.10;99.90;;;;;;5035115;28;20920;-67
2021/05/17 02:30:56;;;;;;;28.20;21.90;;;13.10;99.90;;;;;;5035215;28;20418;-68
2021/05/17 02:33:22;;;;;;;27.80;21.10;;;13.10;99.90;;;;;;5035027;28;20209;-66
2021/05/17 02:35:48;;;;;;;33.83;21.50;;;13.10;99.90;;;;;;5035121;28;20408;-66
2021/05/17 02:38:14;;;;;;;29.57;21.77;;;13.10;99.90;;;;;;5034842;28;20451;-67
2021/05/17 02:40:41;;;;;;;27.77;22.87;;;13.10;99.90;;;;;;5035021;28;20189;-67
2021/05/17 02:43:08;;;;;;;27.30;21.30;;;13.10;99.90;;;;;;5034854;28;20960;-67
2021/05/17 02:45:35;;;;;;;30.07;23.43;;;13.10;99.90;;;;;;5034909;28;20396;-68
2021/05/17 02:48:03;;;;;;;26.60;21.13;;;13.10;99.90;;;;;;5034756;28;20436;-67
2021/05/17 02:50:35;;;;;;;29.30;22.40;;;13.00;99.90;;;;;;5034526;28;20419;-68
2021/05/17 02:53:21;;;;;;;29.60;22.43;;;13.00;99.90;;;;;;5034751;28;20420;-68
2021/05/17 02:55:49;;;;;;;28.70;22.67;;;13.00;99.90;;;;;;5034643;28;20442;-69
2021/05/17 02:58:17;;;;;;;26.50;21.90;;;13.00;99.90;;;;;;5034510;28;20467;-67
2021/05/17 03:00:49;;;;;;;28.50;22.67;;;13.10;99.90;;;;;;5034663;28;20904;-69
2021/05/17 03:03:16;;;;;;;27.90;22.30;;;13.10;99.90;;;;;;5034454;28;20427;-68
2021/05/17 03:05:44;;;;;;;34.13;23.50;;;13.10;99.90;;;;;;5034577;28;20889;-69
2021/05/17 03:08:12;;;;;;;30.73;23.97;;;13.00;99.90;;;;;;5034180;28;20874;-66
2021/05/17 03:10:43;;;;;;;24.87;20.90;;;13.00;99.90;;;;;;5033162;28;20458;-67
2021/05/17 03:13:14;;;;;;;31.13;21.67;;;13.00;99.90;;;;;;5034351;28;20909;-66
2021/05/17 03:15:40;;;;;;;27.20;21.80;;;13.00;99.90;;;;;;5034320;28;20444;-69
2021/05/17 03:18:07;;;;;;;28.20;22.37;;;13.10;99.90;;;;;;5034135;28;20459;-68
2021/05/17 03:20:33;;;;;;;25.87;21.30;;;13.10;99.90;;;;;;5034301;28;20772;-67
2021/05/17 03:23:01;;;;;;;26.00;21.47;;;13.10;99.90;;;;;;5032920;28;20443;-68
2021/05/17 03:25:31;;;;;;;27.50;21.17;;;13.10;99.90;;;;;;5032823;28;20411;-67
2021/05/17 03:27:57;;;;;;;32.63;23.10;;;13.10;99.90;;;;;;5034167;28;20412;-68
2021/05/17 03:30:23;;;;;;;29.83;22.37;;;13.10;99.90;;;;;;5033986;28;20785;-66
2021/05/17 03:32:49;;;;;;;26.43;20.90;;;13.10;99.90;;;;;;5033951;28;20434;-68
2021/05/17 03:35:16;;;;;;;28.77;22.67;;;13.10;99.90;;;;;;5032702;28;20933;-67
2021/05/17 03:37:42;;;;;;;30.30;23.20;;;13.10;99.90;;;;;;5033684;28;20533;-67
2021/05/17 03:40:09;;;;;;;27.70;23.40;;;13.10;99.90;;;;;;5033889;28;20776;-69
2021/05/17 03:42:37;;;;;;;32.00;23.00;;;13.10;99.90;;;;;;5034269;28;20447;-67
2021/05/17 03:45:07;;;;;;;29.43;23.43;;;13.10;99.90;;;;;;5033950;28;20419;-66
2021/05/17 03:47:33;;;;;;;33.93;25.43;;;13.20;99.90;;;;;;5034277;28;20801;-67
2021/05/17 03:49:59;;;;;;;32.30;24.30;;;13.20;99.90;;;;;;5033505;28;20423;-68
2021/05/17 03:52:24;;;;;;;32.20;24.33;;;13.30;99.90;;;;;;5033712;28;20604;-66
2021/05/17 03:54:50;;;;;;;30.03;23.50;;;13.20;99.90;;;;;;5033587;28;20197;-67
2021/05/17 03:57:16;;;;;;;31.50;24.27;;;13.20;99.90;;;;;;5033915;28;20221;-69
2021/05/17 03:59:45;;;;;;;28.17;23.37;;;13.30;99.90;;;;;;5033399;28;20182;-69
2021/05/17 04:02:14;;;;;;;35.60;23.17;;;13.30;99.90;;;;;;5031637;28;20952;-69
2021/05/17 04:04:44;;;;;;;31.67;24.97;;;13.40;99.90;;;;;;5022324;28;20448;-68
2021/05/17 04:07:25;;;;;;;28.97;23.40;;;13.50;99.90;;;;;;5030792;28;20980;-69
2021/05/17 04:15:00;;;;;;;28.70;23.60;;;13.50;99.90;;;;;;5032862;28;20396;-68
2021/05/17 04:17:26;;;;;;;30.77;22.90;;;13.60;99.90;;;;;;5033424;28;20214;-68
2021/05/17 04:19:51;;;;;;;31.00;23.87;;;13.60;99.90;;;;;;5033465;28;20261;-68
2021/05/17 04:22:17;;;;;;;27.07;22.90;;;13.60;99.90;;;;;;5033794;28;20202;-68
2021/05/17 04:24:42;;;;;;;32.10;23.70;;;13.70;99.90;;;;;;5033598;28;20170;-68
2021/05/17 04:27:08;;;;;;;30.23;22.50;;;13.70;99.90;;;;;;5033740;28;20276;-67
2021/05/17 04:29:34;;;;;;;27.70;21.30;;;13.70;99.90;;;;;;5033439;28;20178;-69
2021/05/17 04:31:59;;;;;;;30.37;21.40;;;13.70;99.90;;;;;;5032447;28;20198;-68
2021/05/17 04:34:25;;;;;;;27.67;22.60;;;13.80;99.90;;;;;;5033114;28;20205;-68
2021/05/17 04:36:51;;;;;;;29.17;21.97;;;13.90;99.90;;;;;;5033301;28;20203;-67
2021/05/17 04:39:17;;;;;;;29.13;22.10;;;13.90;99.90;;;;;;5015550;28;20416;-68
2021/05/17 04:41:42;;;;;;;28.50;22.17;;;14.00;99.90;;;;;;5032460;28;20285;-67
2021/05/17 04:44:08;;;;;;;31.17;22.87;;;13.90;99.90;;;;;;5032798;28;20183;-68
2021/05/17 04:46:34;;;;;;;25.67;20.60;;;13.90;99.90;;;;;;5032697;28;20210;-68
2021/05/17 04:49:00;;;;;;;25.83;21.30;;;13.90;99.90;;;;;;5033046;28;20782;-69
2021/05/17 04:51:25;;;;;;;25.30;21.03;;;13.90;99.90;;;;;;5032521;28;20193;-68
2021/05/17 04:53:52;;;;;;;28.87;22.43;;;13.90;99.90;;;;;;5032634;28;20186;-67
2021/05/17 04:56:19;;;;;;;29.77;21.17;;;14.00;99.90;;;;;;5032623;28;20194;-67
2021/05/17 04:58:44;;;;;;;23.10;19.30;;;13.90;99.90;;;;;;5032520;28;20562;-69
2021/05/17 05:01:10;;;;;;;24.53;20.57;;;14.00;99.90;;;;;;5013702;28;21059;-66
2021/05/17 05:03:35;;;;;;;25.20;19.90;;;14.00;99.90;;;;;;5032930;28;20175;-68
2021/05/17 05:06:01;;;;;;;25.63;19.77;;;13.90;99.90;;;;;;5014691;28;20527;-67
2021/05/17 05:08:27;;;;;;;24.00;19.93;;;13.90;99.90;;;;;;5032344;28;20252;-67
2021/05/17 05:10:53;;;;;;;28.17;20.10;;;13.90;99.90;;;;;;5032357;28;20191;-68
2021/05/17 05:13:19;;;;;;;25.80;18.67;;;13.90;99.90;;;;;;5026688;28;20257;-68
2021/05/17 05:15:45;;;;;;;28.13;20.60;;;13.80;99.90;;;;;;5020162;28;20427;-67
2021/05/17 05:18:11;;;;;;;25.57;20.37;;;13.80;99.90;;;;;;5035074;28;20463;-69
2021/05/17 05:20:37;;;;;;;26.30;21.00;;;13.80;99.90;;;;;;5035534;28;20201;-68
2021/05/17 05:23:04;;;;;;;26.17;20.03;;;13.90;99.90;;;;;;5036096;28;20438;-68
2021/05/17 05:25:48;;;;;;;24.50;21.00;;;13.80;99.90;;;;;;5034773;28;20427;-66
2021/05/17 05:28:16;;;;;;;23.47;19.60;;;13.90;99.90;;;;;;5034771;28;20452;-68
2021/05/17 05:30:53;;;;;;;24.47;19.63;;;14.00;99.90;;;;;;5034611;28;20478;-68
2021/05/17 05:33:19;;;;;;;25.27;19.67;;;14.20;99.90;;;;;;5033956;28;20451;-66
2021/05/17 05:35:47;;;;;;;26.37;19.70;;;14.20;99.90;;;;;;5028249;28;21032;-66
2021/05/17 05:38:14;;;;;;;22.60;19.60;;;14.20;99.90;;;;;;5023147;28;20222;-67
2021/05/17 05:40:39;;;;;;;25.43;21.20;;;14.50;99.90;;;;;;5031954;28;20427;-67
2021/05/17 05:43:05;;;;;;;22.43;18.70;;;14.70;99.90;;;;;;5026999;28;20466;-68
2021/05/17 05:45:33;;;;;;;24.87;20.80;;;14.60;99.90;;;;;;5034449;28;20885;-66
2021/05/17 05:47:59;;;;;;;20.60;18.43;;;15.00;99.90;;;;;;5032660;28;20672;-66
2021/05/17 05:50:25;;;;;;;23.70;18.60;;;15.00;99.90;;;;;;5030129;28;20503;-68
2021/05/17 05:52:51;;;;;;;22.77;18.47;;;14.90;99.90;;;;;;5033550;28;20531;-69
2021/05/17 05:55:17;;;;;;;24.50;19.57;;;14.90;99.90;;;;;;5023998;28;20184;-69
2021/05/17 05:57:44;;;;;;;22.47;19.40;;;14.90;99.90;;;;;;5027704;28;20607;-68
2021/05/17 06:00:14;;;;;;;21.83;19.10;;;14.60;99.90;;;;;;5033966;28;20978;-69
2021/05/17 06:02:40;;;;;;;24.30;20.47;;;14.70;99.90;;;;;;5034515;28;20478;-68
2021/05/17 06:05:08;;;;;;;23.27;18.60;;;14.40;99.90;;;;;;5028755;28;20787;-70
2021/05/17 06:07:34;;;;;;;21.87;19.57;;;14.60;99.90;;;;;;5020518;28;20957;-67
2021/05/17 06:10:00;;;;;;;25.13;18.77;;;14.70;99.90;;;;;;5023287;28;20519;-69
2021/05/17 06:12:26;;;;;;;21.20;18.90;;;14.50;99.90;;;;;;5021049;28;20487;-68
2021/05/17 06:15:04;;;;;;;23.63;19.53;;;14.30;99.90;;;;;;5032372;28;20179;-68
2021/05/17 06:17:30;;;;;;;23.80;19.47;;;14.20;99.90;;;;;;5033394;28;20304;-70
2021/05/17 06:19:56;;;;;;;24.43;19.50;;;14.30;99.90;;;;;;5031019;28;20928;-68
2021/05/17 06:22:25;;;;;;;31.70;21.97;;;14.30;99.90;;;;;;5031640;28;20210;-68
2021/05/17 06:24:53;;;;;;;22.50;18.80;;;14.20;99.90;;;;;;5026709;28;20420;-66
2021/05/17 06:27:19;;;;;;;21.43;18.30;;;14.30;99.90;;;;;;5064536;28;20459;-69
2021/05/17 06:29:45;;;;;;;25.03;20.37;;;14.40;99.90;;;;;;5034612;28;20760;-67
2021/05/17 06:32:15;;;;;;;27.10;20.90;;;14.30;99.90;;;;;;5034019;28;20538;-69
2021/05/17 06:34:41;;;;;;;31.37;20.30;;;14.30;99.90;;;;;;5032918;28;20456;-67
2021/05/17 06:37:07;;;;;;;23.40;19.20;;;14.20;99.90;;;;;;5032245;28;20492;-67
2021/05/17 06:39:33;;;;;;;23.27;18.50;;;14.10;99.90;;;;;;5031866;28;20224;-68
2021/05/17 06:41:59;;;;;;;24.87;19.57;;;14.10;99.90;;;;;;5034101;28;20464;-67
2021/05/17 06:44:25;;;;;;;25.03;21.93;;;14.00;99.90;;;;;;5032047;28;20450;-68
2021/05/17 06:46:51;;;;;;;24.70;21.20;;;14.30;99.90;;;;;;5031468;28;20483;-68
2021/05/17 06:49:16;;;;;;;28.53;22.33;;;14.30;99.90;;;;;;5030750;28;20210;-68
2021/05/17 06:51:42;;;;;;;29.60;22.50;;;14.40;99.90;;;;;;5033849;28;20264;-69
2021/05/17 06:54:10;;;;;;;29.30;21.50;;;14.50;99.90;;;;;;5029090;28;20238;-68
2021/05/17 06:56:48;;;;;;;26.97;22.00;;;14.40;99.90;;;;;;5023058;28;20214;-68
2021/05/17 06:59:17;;;;;;;29.33;22.50;;;14.50;99.90;;;;;;5028715;28;20438;-70
2021/05/17 07:01:43;;;;;;;26.33;22.90;;;14.60;99.90;;;;;;5027094;28;20554;-67
2021/05/17 07:04:29;;;;;;;31.03;22.97;;;14.70;99.90;;;;;;5059207;28;20514;-69
2021/05/17 07:06:58;;;;;;;30.00;23.70;;;14.80;99.90;;;;;;5029035;28;21038;-70
2021/05/17 07:12:14;;;;;;;30.73;23.40;;;14.80;99.90;;;;;;5021454;28;20483;-68
2021/05/17 07:14:40;;;;;;;29.90;24.57;;;14.80;99.90;;;;;;5029232;28;20456;-70
2021/05/17 07:17:06;;;;;;;25.90;22.17;;;14.80;99.90;;;;;;5029434;28;20556;-69
2021/05/17 07:19:32;;;;;;;26.90;22.30;;;14.80;99.90;;;;;;5061390;28;20542;-67
2021/05/17 07:24:42;;;;;;;30.70;23.77;;;15.00;99.90;;;;;;5025833;28;20864;-70
2021/05/17 07:27:08;;;;;;;30.23;24.80;;;15.00;99.90;;;;;;5030162;28;20530;-70
2021/05/17 07:29:36;;;;;;;30.87;25.00;;;15.20;99.90;;;;;;5027793;28;20178;-70
2021/05/17 07:32:06;;;;;;;28.23;23.97;;;15.30;99.90;;;;;;5028246;28;20217;-70
2021/05/17 07:34:34;;;;;;;34.67;25.30;;;15.60;99.90;;;;;;5026032;28;20473;-70
2021/05/17 07:37:00;;;;;;;30.77;25.83;;;15.50;99.90;;;;;;5024495;28;21354;-70
2021/05/17 07:39:26;;;;;;;33.17;25.40;;;15.30;99.90;;;;;;5026627;28;20416;-69
2021/05/17 07:41:52;;;;;;;35.93;28.10;;;15.20;99.90;;;;;;5030353;28;20249;-70
2021/05/17 07:44:17;;;;;;;31.90;26.20;;;15.10;99.90;;;;;;5028341;28;20197;-68
2021/05/17 07:46:43;;;;;;;30.57;25.00;;;15.20;99.90;;;;;;5029809;28;20214;-69
2021/05/17 07:51:36;;;;;;;31.13;26.10;;;15.00;99.90;;;;;;5029184;28;20233;-67
2021/05/17 07:54:02;;;;;;;27.83;22.40;;;15.20;99.90;;;;;;5028902;28;20175;-69
2021/05/17 07:56:28;;;;;;;30.60;25.30;;;15.20;99.90;;;;;;5025019;28;20555;-70
2021/05/17 07:58:54;;;;;;;28.00;23.33;;;15.30;99.90;;;;;;5031122;28;20534;-69
2021/05/17 08:01:19;;;;;;;30.10;24.30;;;15.40;99.90;;;;;;5033081;28;20268;-68
2021/05/17 08:03:45;;;;;;;32.17;26.10;;;15.40;99.90;;;;;;5030876;28;20198;-68
2021/05/17 08:06:11;;;;;;;27.97;24.03;;;15.40;99.90;;;;;;5024292;28;20436;-67
2021/05/17 08:08:36;;;;;;;30.10;23.13;;;15.60;99.90;;;;;;5026042;28;20225;-68
2021/05/17 08:11:03;;;;;;;31.00;24.93;;;15.80;99.90;;;;;;5030595;28;20201;-68
2021/05/17 08:13:29;;;;;;;31.17;25.00;;;15.80;99.90;;;;;;5028280;28;20221;-70
2021/05/17 08:15:55;;;;;;;27.03;24.17;;;15.70;99.90;;;;;;5030486;28;20444;-69
2021/05/17 08:18:21;;;;;;;32.10;24.60;;;15.90;99.90;;;;;;5030031;28;20511;-70
2021/05/17 08:20:48;;;;;;;28.07;23.87;;;15.90;99.90;;;;;;5032064;28;20462;-70
2021/05/17 08:23:16;;;;;;;27.93;24.90;;;15.70;99.90;;;;;;5030437;28;20435;-67
2021/05/17 08:25:42;;;;;;;31.27;26.10;;;15.70;99.90;;;;;;5026740;28;20443;-69
2021/05/17 08:28:08;;;;;;;30.03;25.70;;;16.10;99.90;;;;;;5030255;28;20835;-70
2021/05/17 08:30:41;;;;;;;29.03;26.00;;;16.10;99.90;;;;;;5028209;28;20427;-68
2021/05/17 08:33:07;;;;;;;27.60;22.60;;;15.80;99.90;;;;;;5030908;28;20234;-68
2021/05/17 08:35:32;;;;;;;30.40;25.90;;;15.90;99.90;;;;;;5030907;28;20454;-68
2021/05/17 08:37:58;;;;;;;29.70;24.00;;;15.80;99.90;;;;;;5029773;28;20475;-68
2021/05/17 08:40:26;;;;;;;29.10;24.73;;;15.90;99.90;;;;;;5030317;28;20195;-68
2021/05/17 08:42:55;;;;;;;30.37;24.73;;;16.00;99.90;;;;;;5024643;28;20206;-71
2021/05/17 08:45:22;;;;;;;32.27;25.87;;;15.90;99.90;;;;;;5060151;28;20423;-71
2021/05/17 08:47:48;;;;;;;32.30;27.10;;;15.90;99.90;;;;;;5030089;28;20996;-69
2021/05/17 08:50:13;;;;;;;31.90;26.20;;;16.10;99.90;;;;;;5031018;28;20459;-68
2021/05/17 08:52:39;;;;;;;27.93;24.60;;;16.20;99.90;;;;;;5061038;28;20455;-68
2021/05/17 08:55:09;;;;;;;25.80;22.37;;;16.20;99.90;;;;;;5025289;28;20940;-70
2021/05/17 08:57:35;;;;;;;31.17;24.47;;;16.10;99.90;;;;;;5033004;28;20475;-70
2021/05/17 09:00:01;;;;;;;29.10;25.97;;;16.40;99.90;;;;;;5033634;28;20427;-70
2021/05/17 09:02:27;;;;;;;29.60;24.60;;;16.60;99.90;;;;;;5034230;28;20467;-71
2021/05/17 09:05:15;;;;;;;29.90;26.23;;;16.90;99.90;;;;;;5030091;28;20209;-71
2021/05/17 09:07:46;;;;;;;28.83;25.67;;;16.70;99.90;;;;;;5033425;28;20481;-71
2021/05/17 09:10:13;;;;;;;30.17;23.43;;;16.90;99.90;;;;;;5027996;28;20419;-71
2021/05/17 09:13:12;;;;;;;29.23;25.77;;;16.90;99.90;;;;;;5034597;28;20447;-71
2021/05/17 09:15:44;;;;;;;24.90;22.30;;;16.80;99.90;;;;;;5027109;28;20427;-71
2021/05/17 09:18:14;;;;;;;24.10;21.50;;;16.90;99.90;;;;;;5028626;28;20991;-71
2021/05/17 09:20:44;;;;;;;22.87;20.47;;;16.90;99.90;;;;;;5033313;28;20423;-69
2021/05/17 09:23:17;;;;;;;26.00;22.60;;;16.90;99.90;;;;;;5032943;28;20828;-71
2021/05/17 09:26:10;;;;;;;20.37;18.40;;;17.00;99.90;;;;;;5027000;28;20452;-71
2021/05/17 09:28:39;;;;;;;20.00;18.00;;;17.00;99.90;;;;;;5023450;28;20470;-68
2021/05/17 09:31:17;;;;;;;21.40;19.07;;;17.10;99.90;;;;;;5031035;28;20435;-68
2021/05/17 09:33:55;;;;;;;23.50;21.07;;;17.00;99.90;;;;;;5028193;28;20855;-68
2021/05/17 09:36:30;;;;;;;22.80;20.53;;;16.80;99.90;;;;;;5030624;28;20439;-68
2021/05/17 09:38:56;;;;;;;23.40;21.00;;;16.70;99.90;;;;;;5030051;28;21030;-68
2021/05/17 09:41:22;;;;;;;22.37;19.47;;;16.70;99.90;;;;;;5025052;28;20436;-68
2021/05/17 09:43:47;;;;;;;24.30;22.00;;;16.60;99.90;;;;;;5032917;28;20247;-69
2021/05/17 09:46:13;;;;;;;24.67;21.80;;;16.70;99.90;;;;;;5031926;28;20192;-68
2021/05/17 09:48:47;;;;;;;22.87;20.50;;;16.70;99.90;;;;;;5029825;28;20923;-69
2021/05/17 09:51:14;;;;;;;22.80;20.40;;;16.60;99.90;;;;;;5033289;28;20276;-68
2021/05/17 09:53:45;;;;;;;22.87;19.27;;;16.70;99.90;;;;;;5031570;28;20416;-68
2021/05/17 09:56:13;;;;;;;23.17;20.80;;;16.60;99.90;;;;;;5033543;28;20527;-68
2021/05/17 09:58:44;;;;;;;26.80;23.43;;;16.80;99.90;;;;;;5033119;28;20974;-71
2021/05/17 10:01:15;;;;;;;26.07;22.47;;;16.60;99.90;;;;;;5020311;28;20447;-71
2021/05/17 10:03:55;;;;;;;24.53;22.23;;;16.50;99.90;;;;;;5029591;28;20433;-71
2021/05/17 10:06:23;;;;;;;22.80;20.30;;;16.50;99.90;;;;;;5031638;28;20463;-71
2021/05/17 10:08:49;;;;;;;24.10;21.33;;;16.60;99.90;;;;;;5029846;28;20821;-70
2021/05/17 10:11:16;;;;;;;23.10;20.30;;;16.60;99.90;;;;;;5028778;28;21206;-69
2021/05/17 10:13:43;;;;;;;23.10;20.63;;;16.70;99.90;;;;;;5029609;28;20415;-69
2021/05/17 10:16:10;;;;;;;22.00;19.80;;;16.60;99.90;;;;;;5028551;28;20439;-70
2021/05/17 10:18:38;;;;;;;19.87;17.77;;;16.60;99.90;;;;;;5032182;28;20472;-68
2021/05/17 10:21:08;;;;;;;21.20;19.00;;;16.60;99.90;;;;;;5033870;28;20773;-68
2021/05/17 10:23:36;;;;;;;23.03;20.27;;;16.40;99.90;;;;;;5033488;28;21035;-70
2021/05/17 10:26:16;;;;;;;22.80;19.87;;;16.40;99.90;;;;;;5022548;28;20435;-71
2021/05/17 10:28:54;;;;;;;20.87;18.67;;;16.40;99.90;;;;;;5031992;28;20423;-70
2021/05/17 10:31:23;;;;;;;24.27;21.53;;;16.40;99.90;;;;;;5032087;28;20506;-70
2021/05/17 10:34:15;;;;;;;22.80;19.93;;;16.50;99.90;;;;;;5031186;28;20810;-68
2021/05/17 10:37:01;;;;;;;21.30;19.20;;;16.50;99.90;;;;;;5024840;28;20468;-68
2021/05/17 10:39:37;;;;;;;23.33;20.90;;;16.70;99.90;;;;;;5031528;28;20420;-70
2021/05/17 10:48:11;;;;;;;25.03;22.33;;;16.90;99.90;;;;;;5024458;28;20513;-70
2021/05/17 10:50:37;;;;;;;23.00;20.63;;;16.90;99.90;;;;;;5027441;28;20439;-68
2021/05/17 10:53:03;;;;;;;22.87;20.60;;;17.00;99.90;;;;;;5029146;28;20952;-68
2021/05/17 10:55:33;;;;;;;21.00;18.83;;;16.90;99.90;;;;;;5021652;28;20431;-69
2021/05/17 11:00:31;;;;;;;22.70;20.40;;;16.90;99.90;;;;;;5031676;28;20917;-71
2021/05/17 11:03:08;;;;;;;21.73;18.17;;;17.10;99.90;;;;;;5031828;28;20820;-70
2021/05/17 11:05:34;;;;;;;14.67;13.33;;;17.10;99.90;;;;;;5027869;28;20432;-70
2021/05/17 11:08:04;;;;;;;14.87;13.37;;;16.90;99.90;;;;;;5028762;28;20499;-71
2021/05/17 11:10:37;;;;;;;8.97;8.13;;;17.00;99.90;;;;;;5029575;28;20432;-69
2021/05/17 11:13:19;;;;;;;8.93;7.80;;;17.00;99.90;;;;;;5029509;28;20435;-70
2021/05/17 11:15:48;;;;;;;6.23;5.73;;;16.90;99.90;;;;;;5027190;28;20448;-69
2021/05/17 11:18:14;;;;;;;5.97;5.37;;;16.80;99.90;;;;;;5031224;28;20495;-70
2021/05/17 11:20:40;;;;;;;7.43;6.70;;;16.90;99.90;;;;;;5028984;28;20803;-69
2021/05/17 11:23:20;;;;;;;6.87;6.10;;;16.90;99.90;;;;;;5030955;28;20671;-71
2021/05/17 11:25:49;;;;;;;7.03;6.33;;;16.90;99.90;;;;;;5025335;28;20288;-68
2021/05/17 11:28:16;;;;;;;7.80;7.00;;;16.90;99.90;;;;;;5026790;28;20443;-71
2021/05/17 11:30:44;;;;;;;10.00;6.90;;;16.90;99.90;;;;;;5030006;28;20427;-69
2021/05/17 11:33:20;;;;;;;7.77;6.97;;;16.90;99.90;;;;;;5027217;28;20459;-71
2021/05/17 11:35:58;;;;;;;7.03;6.33;;;17.00;99.90;;;;;;5028114;28;20443;-70
2021/05/17 11:38:24;;;;;;;8.20;7.40;;;17.00;99.90;;;;;;5029749;28;20471;-70
2021/05/17 11:40:50;;;;;;;7.90;7.20;;;17.00;99.90;;;;;;5028443;28;20436;-69
2021/05/17 11:43:16;;;;;;;8.27;7.47;;;17.10;99.90;;;;;;5024489;28;20198;-69
2021/05/17 11:45:43;;;;;;;7.17;6.57;;;17.20;99.90;;;;;;5027038;28;20994;-69
2021/05/17 11:48:09;;;;;;;8.60;7.87;;;17.10;99.90;;;;;;5029943;28;20451;-71
2021/05/17 11:50:34;;;;;;;8.33;7.50;;;17.20;99.90;;;;;;5023093;28;20788;-69
2021/05/17 11:53:00;;;;;;;8.27;7.47;;;17.30;99.90;;;;;;5023921;28;20199;-70
2021/05/17 11:55:26;;;;;;;7.90;7.30;;;17.30;99.90;;;;;;5028702;28;20181;-68
2021/05/17 11:57:52;;;;;;;7.80;7.17;;;17.30;99.90;;;;;;5031610;28;20568;-71
2021/05/17 12:00:24;;;;;;;9.33;8.43;;;17.30;99.90;;;;;;5030143;28;20179;-70
2021/05/17 12:02:52;;;;;;;7.43;6.83;;;17.50;99.90;;;;;;5030139;28;21179;-69
2021/05/17 12:05:20;;;;;;;8.57;7.77;;;17.60;99.90;;;;;;5025822;28;20550;-69
2021/05/17 12:07:47;;;;;;;8.00;7.37;;;18.00;99.90;;;;;;5028399;28;20455;-69
2021/05/17 12:10:15;;;;;;;7.80;7.20;;;18.00;99.90;;;;;;5026066;28;20404;-69
2021/05/17 12:12:41;;;;;;;7.47;6.87;;;18.00;99.90;;;;;;5027504;28;20451;-67
2021/05/17 12:15:10;;;;;;;8.53;7.80;;;17.80;99.90;;;;;;5024117;28;20420;-66
2021/05/17 12:17:37;;;;;;;7.67;7.03;;;17.80;99.90;;;;;;5022939;28;20220;-66
2021/05/17 12:20:07;;;;;;;9.13;8.30;;;17.60;99.90;;;;;;5026467;28;20412;-69
2021/05/17 12:22:43;;;;;;;8.30;7.60;;;17.70;99.90;;;;;;5026004;28;20467;-68
2021/05/17 12:25:14;;;;;;;8.00;7.30;;;17.70;99.90;;;;;;5025268;28;20502;-66
2021/05/17 12:27:41;;;;;;;8.37;7.40;;;17.80;99.90;;;;;;5030198;28;20964;-66
2021/05/17 12:30:14;;;;;;;9.67;8.87;;;17.70;99.90;;;;;;5032174;28;20453;-67
2021/05/17 12:32:50;;;;;;;9.53;8.40;;;17.80;99.90;;;;;;5032922;28;20459;-67
2021/05/17 12:35:36;;;;;;;7.97;7.37;;;18.10;99.90;;;;;;5035038;28;20409;-67
2021/05/17 12:38:19;;;;;;;8.53;7.73;;;18.20;99.90;;;;;;5036312;28;20958;-66
2021/05/17 12:40:47;;;;;;;9.20;8.40;;;18.20;99.90;;;;;;5035379;28;20776;-69
2021/05/17 12:43:19;;;;;;;9.90;9.00;;;18.20;99.90;;;;;;5028549;28;20959;-66
2021/05/17 12:45:58;;;;;;;8.57;7.67;;;18.30;99.90;;;;;;5032691;28;20976;-69
2021/05/17 12:48:43;;;;;;;9.50;8.00;;;18.50;99.90;;;;;;5032512;28;20799;-68
2021/05/17 12:51:19;;;;;;;8.50;7.60;;;18.40;99.90;;;;;;5033171;28;20428;-68
2021/05/17 12:53:47;;;;;;;11.90;8.67;;;18.50;99.90;;;;;;5032970;28;21904;-70
2021/05/17 12:56:31;;;;;;;8.73;8.03;;;18.40;99.90;;;;;;5064408;28;20441;-71
2021/05/17 12:59:03;;;;;;;8.83;7.93;;;18.20;99.90;;;;;;5034363;28;20990;-70